Home   Weather   Sweden   Eskilstuna   Past weeks
Flag for Sweden

Past Weather in Eskilstuna, Sweden — Yesterday and Last 2 Weeks

Currently: 61 °F. Passing clouds. (Weather station: Vasteras / Hasslo, Sweden). See more current weather

Past Weather in Eskilstuna — Graph

°F

Eskilstuna Temperature Yesterday

Maximum temperature yesterday: 72 °F (at 3:50 pm)
Minimum temperature yesterday: 54 °F (at 4:20 am)
Average temperature yesterday: 64 °F

High & Low Weather Summary for the Past Weeks

 TemperatureHumidityPressure
High72 °F (Jun 16, 4:50 pm)100% (Jun 12, 2:20 am)29.98 "Hg (Jun 12, 2:20 am)
Low43 °F (Jun 12, 2:20 am)34% (Jun 7, 4:20 pm)29.27 "Hg (Jun 10, 5:50 am)
Average58 °F67%29.75 "Hg
* Reported Jun 7 8:20 am — Jun 22 6:50 am, Eskilstuna. Weather by CustomWeather, © 2024

Note: Actual official high and low records may vary slightly from our data, if they occured in-between our weather recording intervals... More about our weather records

Eskilstuna Weather History for the Previous 24 Hours

Scroll right to see more
 ConditionsComfort  
Time TempWeatherWind HumidityBarometerVisibility
6:50 am
Sat, Jun 22
59 °FClear.2 mph77%29.89 "HgN/A
6:20 am57 °FClear.2 mph88%29.89 "HgN/A
5:50 am54 °FClear.2 mph88%29.92 "HgN/A
5:20 am52 °FClear.5 mph88%29.92 "HgN/A
4:50 am52 °FPassing clouds.5 mph88%29.92 "HgN/A
4:20 am50 °FClear.1 mph88%29.92 "HgN/A
3:50 am50 °FClear.No wind88%29.92 "HgN/A
3:20 am48 °FClear.3 mph94%29.92 "HgN/A
2:50 am52 °FClear.2 mph88%29.92 "HgN/A
1:50 am54 °FClear.2 mph82%29.92 "HgN/A
1:20 am55 °FClear.5 mph77%29.92 "HgN/A
12:50 am57 °FClear.3 mph72%29.92 "HgN/A
12:20 am59 °FClear.2 mph72%29.92 "HgN/A
11:50 pm
Fri, Jun 21
57 °FClear.3 mph72%29.92 "HgN/A
11:20 pm59 °FClear.3 mph68%29.92 "HgN/A
10:50 pm61 °FClear.8 mph63%29.92 "HgN/A
10:20 pm61 °FClear.7 mph68%29.92 "HgN/A
9:50 pm63 °FClear.6 mph68%29.92 "HgN/A
9:20 pm66 °FClear.5 mph60%29.89 "HgN/A
8:50 pm68 °FClear.7 mph53%29.89 "HgN/A
8:20 pm72 °FClear.3 mph38%29.89 "HgN/A
7:50 pm72 °FClear.6 mph41%29.92 "HgN/A
7:20 pm72 °FClear.6 mph38%29.92 "HgN/A
6:50 pm72 °FClear.7 mph41%29.92 "HgN/A
6:20 pm72 °FClear.7 mph38%29.92 "HgN/A
5:50 pm72 °FClear.7 mph38%29.92 "HgN/A
5:20 pm72 °FClear.7 mph38%29.92 "HgN/A
4:50 pm72 °FClear.10 mph36%29.95 "HgN/A
4:20 pm72 °FPassing clouds.9 mph38%29.95 "HgN/A
3:50 pm72 °FClear.7 mph38%29.95 "HgN/A
3:20 pm70 °FClear.8 mph43%29.95 "HgN/A
2:50 pm70 °FClear.7 mph43%29.95 "HgN/A
2:20 pm70 °FClear.8 mph43%29.98 "HgN/A
1:50 pm70 °FClear.7 mph46%29.98 "HgN/A
1:20 pm68 °FClear.5 mph46%29.98 "HgN/A
12:50 pm68 °FClear.6 mph43%29.98 "HgN/A
12:20 pm68 °FClear.3 mph43%29.98 "HgN/A
11:50 am66 °FPassing clouds.10 mph46%29.98 "HgN/A
11:20 am66 °FPassing clouds.7 mph43%29.98 "HgN/A
10:50 am66 °FPassing clouds.6 mph46%29.98 "HgN/A
10:20 am66 °FSunny.2 mph46%29.98 "Hg10 mi
9:50 am64 °FPassing clouds.5 mph46%29.98 "HgN/A
9:20 am64 °FPassing clouds.5 mph49%29.98 "HgN/A
8:50 am63 °FPassing clouds.8 mph52%29.98 "HgN/A
8:20 am63 °FPassing clouds.6 mph56%29.95 "HgN/A
Weather by CustomWeather, © 2024

See weather overview